createdAt,value
2018-09-06T00:01:11.210Z,71.54
2018-09-06T00:03:39.877Z,71.35
2018-09-06T00:06:08.561Z,71.29
2018-09-06T00:08:37.352Z,71.45
2018-09-06T00:11:06.036Z,71.41
2018-09-06T00:13:34.758Z,71.52
2018-09-06T00:16:03.431Z,71.42
2018-09-06T00:18:32.118Z,71.50
2018-09-06T00:21:00.761Z,71.53
2018-09-06T00:23:29.516Z,71.69
2018-09-06T00:25:58.236Z,72.10
2018-09-06T00:28:26.910Z,72.33
2018-09-06T00:30:55.623Z,72.59
2018-09-06T00:33:24.279Z,72.42
2018-09-06T00:35:52.980Z,72.38
2018-09-06T00:38:21.692Z,72.76
2018-09-06T00:40:50.432Z,72.92
2018-09-06T00:43:19.160Z,72.98
2018-09-06T00:45:47.879Z,73.03
2018-09-06T00:48:16.593Z,73.04
2018-09-06T00:50:45.354Z,73.17
2018-09-06T00:53:14.096Z,73.37
2018-09-06T00:55:42.796Z,73.09
2018-09-06T00:58:11.496Z,73.41
2018-09-06T01:00:40.252Z,73.41
2018-09-06T01:03:08.959Z,73.07
2018-09-06T01:05:37.727Z,72.99
2018-09-06T01:08:06.460Z,73.73
2018-09-06T01:10:35.204Z,73.61
2018-09-06T01:13:03.897Z,73.68
2018-09-06T01:15:32.619Z,73.92
2018-09-06T01:18:01.374Z,73.75
2018-09-06T01:20:30.141Z,73.82
2018-09-06T01:22:58.793Z,73.99
2018-09-06T01:25:31.614Z,73.85
2018-09-06T01:28:00.304Z,73.87
2018-09-06T01:30:29.058Z,74.09
2018-09-06T01:32:57.715Z,74.04
2018-09-06T01:35:26.406Z,73.99
2018-09-06T01:37:55.124Z,74.23
2018-09-06T01:40:23.868Z,74.08
2018-09-06T01:42:52.542Z,74.05
2018-09-06T01:45:21.234Z,73.98
2018-09-06T01:47:49.943Z,74.28
2018-09-06T01:50:18.625Z,74.27
2018-09-06T01:52:47.368Z,74.30
2018-09-06T01:55:16.057Z,74.26
2018-09-06T01:57:44.731Z,74.25
2018-09-06T02:00:13.407Z,74.32
2018-09-06T02:02:42.082Z,74.26
2018-09-06T02:05:10.872Z,74.33
2018-09-06T02:07:39.558Z,74.25
2018-09-06T02:10:08.251Z,74.30
2018-09-06T02:12:36.946Z,74.32
2018-09-06T02:15:05.651Z,74.46
2018-09-06T02:17:34.392Z,74.47
2018-09-06T02:20:03.093Z,74.46
2018-09-06T02:22:31.805Z,74.40
2018-09-06T02:25:00.532Z,74.48
2018-09-06T02:27:29.209Z,74.31
2018-09-06T02:29:57.897Z,74.44
2018-09-06T02:32:27.560Z,74.50
2018-09-06T02:34:56.260Z,74.55
2018-09-06T02:37:24.948Z,74.51
2018-09-06T02:39:53.625Z,74.62
2018-09-06T02:42:22.476Z,74.52
2018-09-06T02:44:51.195Z,74.60
2018-09-06T02:47:19.879Z,74.73
2018-09-06T02:49:53.640Z,74.68
2018-09-06T02:52:22.440Z,74.79
2018-09-06T02:54:51.108Z,75.01
2018-09-06T02:57:19.788Z,75.01
2018-09-06T02:59:48.459Z,74.92
2018-09-06T03:02:17.204Z,75.16
2018-09-06T03:04:45.912Z,75.05
2018-09-06T03:07:14.580Z,74.96
2018-09-06T03:09:43.293Z,75.01
2018-09-06T03:12:12.125Z,75.16
2018-09-06T03:14:40.847Z,75.03
2018-09-06T03:17:09.557Z,75.25
2018-09-06T03:19:38.359Z,75.28
2018-09-06T03:22:07.020Z,75.25
2018-09-06T03:24:35.746Z,75.21
2018-09-06T03:27:04.413Z,75.46
2018-09-06T03:29:33.088Z,75.37
2018-09-06T03:32:01.767Z,75.47
2018-09-06T03:34:30.469Z,75.66
2018-09-06T03:36:59.195Z,75.65
2018-09-06T03:39:27.875Z,75.68
2018-09-06T03:41:56.571Z,75.72
2018-09-06T03:44:25.245Z,76.06
2018-09-06T03:46:53.944Z,76.06
2018-09-06T03:49:22.621Z,76.02
2018-09-06T03:51:51.378Z,76.38
2018-09-06T03:54:20.076Z,76.28
2018-09-06T03:56:48.800Z,76.42
2018-09-06T03:59:17.482Z,76.36
2018-09-06T04:01:46.145Z,76.29
2018-09-06T04:04:14.804Z,76.63
2018-09-06T04:06:43.491Z,76.56
2018-09-06T04:09:12.322Z,76.66
2018-09-06T04:11:41.158Z,76.85
2018-09-06T04:14:09.885Z,77.02
2018-09-06T04:16:38.616Z,77.15
2018-09-06T04:19:07.628Z,77.25
2018-09-06T04:21:36.346Z,77.21
2018-09-06T04:24:05.039Z,77.36
2018-09-06T04:26:33.715Z,77.31
2018-09-06T04:29:02.420Z,77.15
2018-09-06T04:31:31.264Z,77.39
2018-09-06T04:34:00.012Z,77.56
2018-09-06T04:36:28.732Z,77.52
2018-09-06T04:38:57.486Z,77.67
2018-09-06T04:41:26.243Z,77.64
2018-09-06T04:43:55.031Z,77.92
2018-09-06T04:46:23.749Z,77.99
2018-09-06T04:48:52.463Z,78.30
2018-09-06T04:51:21.200Z,78.33
2018-09-06T04:53:49.890Z,78.35
2018-09-06T04:56:18.572Z,78.27
2018-09-06T04:58:47.361Z,78.41
2018-09-06T05:01:16.033Z,78.34
2018-09-06T05:03:44.695Z,78.49
2018-09-06T05:06:13.567Z,78.44
2018-09-06T05:08:42.254Z,78.62
2018-09-06T05:11:11.008Z,78.87
2018-09-06T05:13:39.720Z,78.91
2018-09-06T05:16:08.418Z,78.69
2018-09-06T05:18:37.208Z,78.91
2018-09-06T05:21:05.967Z,79.19
2018-09-06T05:23:34.643Z,79.12
2018-09-06T05:26:03.327Z,79.24
2018-09-06T05:28:32.005Z,79.12
2018-09-06T05:31:00.656Z,79.42
2018-09-06T05:33:29.361Z,79.42
2018-09-06T05:35:58.715Z,79.44
2018-09-06T05:38:27.402Z,79.57
2018-09-06T05:40:56.093Z,79.50
2018-09-06T05:43:24.856Z,79.80
2018-09-06T05:45:53.536Z,79.89
2018-09-06T05:48:22.284Z,79.94
2018-09-06T05:50:51.018Z,80.05
2018-09-06T05:53:20.164Z,80.25
2018-09-06T05:55:48.944Z,80.47
2018-09-06T05:58:17.669Z,80.37
2018-09-06T06:00:48.481Z,80.44
2018-09-06T06:03:17.311Z,80.41
2018-09-06T06:05:45.984Z,80.80
2018-09-06T06:08:25.765Z,80.90
2018-09-06T06:10:54.424Z,80.88
2018-09-06T06:13:23.222Z,80.72
2018-09-06T06:15:51.989Z,80.80
2018-09-06T06:18:20.673Z,80.68
2018-09-06T06:20:49.405Z,80.81
2018-09-06T06:23:18.107Z,80.92
2018-09-06T06:25:46.817Z,80.74
2018-09-06T06:28:15.852Z,80.98
2018-09-06T06:30:44.587Z,81.24
2018-09-06T06:33:13.269Z,81.37
2018-09-06T06:35:41.965Z,81.50
2018-09-06T06:38:10.660Z,81.67
2018-09-06T06:40:39.352Z,81.69
2018-09-06T06:43:08.085Z,81.79
2018-09-06T06:45:36.784Z,81.77
2018-09-06T06:48:05.521Z,81.92
2018-09-06T06:50:34.276Z,81.94
2018-09-06T06:53:02.968Z,82.25
2018-09-06T06:55:31.664Z,82.01
2018-09-06T06:58:00.340Z,82.38
2018-09-06T07:00:29.173Z,82.59
2018-09-06T07:03:06.689Z,82.67
2018-09-06T07:05:35.380Z,82.93
2018-09-06T07:08:04.085Z,82.88
2018-09-06T07:10:32.787Z,83.01
2018-09-06T07:13:01.480Z,83.12
2018-09-06T07:15:30.139Z,83.03
2018-09-06T07:17:58.832Z,83.31
2018-09-06T07:20:27.472Z,83.10
2018-09-06T07:22:56.189Z,83.40
2018-09-06T07:25:24.884Z,83.56
2018-09-06T07:27:53.531Z,83.94
2018-09-06T07:30:22.321Z,84.03
2018-09-06T07:32:51.002Z,83.96
2018-09-06T07:35:20.931Z,84.34
2018-09-06T07:37:49.687Z,84.66
2018-09-06T07:40:18.361Z,84.72
2018-09-06T07:42:47.103Z,85.21
2018-09-06T07:45:15.799Z,85.37
2018-09-06T07:47:44.509Z,85.64
2018-09-06T07:50:13.700Z,85.83
2018-09-06T07:52:42.384Z,86.04
2018-09-06T07:55:11.091Z,86.30
2018-09-06T07:57:40.558Z,86.37
2018-09-06T08:00:09.281Z,86.63
2018-09-06T08:02:38.583Z,87.16
2018-09-06T08:05:07.364Z,87.77
2018-09-06T08:07:36.046Z,88.45
2018-09-06T08:10:04.831Z,90.10
2018-09-06T08:12:33.511Z,91.12
2018-09-06T08:15:02.192Z,92.02
2018-09-06T08:17:30.851Z,93.18
2018-09-06T08:19:59.587Z,94.38
2018-09-06T08:22:28.256Z,95.75
2018-09-06T08:24:56.920Z,96.48
2018-09-06T08:27:26.235Z,97.49
2018-09-06T08:29:54.895Z,97.78
2018-09-06T08:32:23.676Z,98.62
2018-09-06T08:35:03.175Z,99.20
2018-09-06T08:37:31.931Z,99.63
2018-09-06T08:40:00.620Z,99.83
2018-09-06T08:42:29.413Z,100.00
2018-09-06T08:44:58.113Z,100.00
2018-09-06T08:47:26.881Z,100.00
2018-09-06T08:49:55.495Z,100.00
2018-09-06T08:52:24.366Z,100.00
2018-09-06T08:54:53.039Z,100.00
2018-09-06T08:57:21.876Z,100.00
2018-09-06T08:59:50.604Z,100.00
2018-09-06T09:02:19.466Z,100.00
2018-09-06T09:04:48.047Z,99.94
2018-09-06T09:07:16.817Z,99.90
2018-09-06T09:09:45.513Z,99.71
2018-09-06T09:12:14.249Z,99.69
2018-09-06T09:14:42.973Z,99.37
2018-09-06T09:17:11.653Z,98.81
2018-09-06T09:19:40.412Z,98.55
2018-09-06T09:22:09.215Z,98.81
2018-09-06T09:24:37.885Z,98.73
2018-09-06T09:27:06.980Z,98.74
2018-09-06T09:29:35.715Z,98.14
2018-09-06T09:32:04.419Z,97.92
2018-09-06T09:34:33.156Z,97.05
2018-09-06T09:37:01.855Z,95.91
2018-09-06T09:39:30.601Z,95.46
2018-09-06T09:41:59.327Z,95.38
2018-09-06T09:44:28.026Z,95.25
2018-09-06T09:49:24.845Z,96.20
2018-09-06T09:51:53.580Z,96.65
2018-09-06T09:54:22.332Z,97.07
2018-09-06T09:56:51.169Z,96.42
2018-09-06T09:59:19.831Z,96.17
2018-09-06T10:01:53.756Z,96.52
2018-09-06T10:04:27.629Z,96.80
2018-09-06T10:07:01.387Z,97.52
2018-09-06T10:09:30.106Z,97.87
2018-09-06T10:11:58.883Z,98.35
2018-09-06T10:14:27.640Z,98.63
2018-09-06T10:16:56.349Z,99.16
2018-09-06T10:19:25.077Z,99.49
2018-09-06T10:21:53.787Z,99.87
2018-09-06T10:24:22.555Z,99.96
2018-09-06T10:26:51.428Z,100.00
2018-09-06T10:29:20.291Z,100.00
2018-09-06T10:31:48.998Z,100.00
2018-09-06T10:34:17.795Z,100.00
2018-09-06T10:36:46.541Z,100.00
2018-09-06T10:39:15.334Z,100.00
2018-09-06T10:41:44.046Z,100.00
2018-09-06T10:44:12.797Z,100.00
2018-09-06T10:46:41.498Z,100.00
2018-09-06T10:49:10.220Z,100.00
2018-09-06T10:51:38.898Z,100.00
2018-09-06T10:54:07.592Z,100.00
2018-09-06T10:56:36.332Z,100.00
2018-09-06T10:59:05.058Z,99.74
2018-09-06T11:01:33.826Z,99.34
2018-09-06T11:04:02.524Z,99.06
2018-09-06T11:06:31.214Z,98.98
2018-09-06T11:08:59.954Z,99.22
2018-09-06T11:11:28.620Z,99.01
2018-09-06T11:13:57.306Z,99.54
2018-09-06T11:16:26.080Z,99.53
2018-09-06T11:18:54.816Z,99.28
2018-09-06T11:21:24.292Z,99.21
2018-09-06T11:23:52.975Z,99.52
2018-09-06T11:26:22.296Z,99.82
2018-09-06T11:28:50.977Z,99.39
2018-09-06T11:31:19.695Z,99.48
2018-09-06T11:33:48.416Z,99.06
2018-09-06T11:36:17.088Z,98.84
2018-09-06T11:38:45.828Z,99.08
2018-09-06T11:41:14.518Z,99.13
2018-09-06T11:43:43.326Z,98.63
2018-09-06T11:46:12.012Z,97.49
2018-09-06T11:48:40.736Z,97.26
2018-09-06T11:51:09.800Z,96.79
2018-09-06T11:53:38.593Z,96.28
2018-09-06T11:56:07.578Z,96.07
2018-09-06T11:58:36.993Z,96.04
2018-09-06T12:01:05.790Z,96.42
2018-09-06T12:03:34.580Z,96.34
2018-09-06T12:06:03.301Z,96.07
2018-09-06T12:08:32.030Z,95.97
2018-09-06T12:11:00.745Z,96.13
2018-09-06T12:13:29.443Z,96.04
2018-09-06T12:15:58.139Z,95.36
2018-09-06T12:18:27.008Z,95.36
2018-09-06T12:20:55.752Z,94.68
2018-09-06T12:23:24.477Z,94.25
2018-09-06T12:25:53.318Z,94.22
2018-09-06T12:28:22.427Z,94.42
2018-09-06T12:30:51.402Z,94.55
2018-09-06T12:33:21.473Z,93.99
2018-09-06T12:35:50.678Z,94.14
2018-09-06T12:38:19.697Z,94.37
2018-09-06T12:40:48.499Z,93.41
2018-09-06T12:43:17.788Z,92.42
2018-09-06T12:45:46.616Z,90.89
2018-09-06T12:48:15.380Z,91.70
2018-09-06T12:50:44.180Z,92.38
2018-09-06T12:53:12.944Z,93.33
2018-09-06T12:55:41.750Z,94.08
2018-09-06T12:58:10.563Z,94.75
2018-09-06T13:00:39.283Z,94.96
2018-09-06T13:03:08.082Z,94.61
2018-09-06T13:05:37.005Z,94.18
2018-09-06T13:08:05.942Z,94.77
2018-09-06T13:10:34.676Z,94.67
2018-09-06T13:13:03.440Z,94.90
2018-09-06T13:15:32.362Z,95.07
2018-09-06T13:18:01.192Z,95.75
2018-09-06T13:20:30.020Z,96.89
2018-09-06T13:22:59.766Z,97.87
2018-09-06T13:25:28.592Z,98.28
2018-09-06T13:27:57.409Z,98.51
2018-09-06T13:30:26.168Z,99.19
2018-09-06T13:32:54.898Z,99.72
2018-09-06T13:35:23.792Z,100.00
2018-09-06T13:37:52.699Z,100.00
2018-09-06T13:40:21.527Z,100.00
2018-09-06T13:42:50.223Z,100.00
2018-09-06T13:45:18.964Z,100.00
2018-09-06T13:47:47.668Z,100.00
2018-09-06T13:50:16.342Z,100.00
2018-09-06T13:52:45.046Z,100.00
2018-09-06T13:55:13.716Z,100.00
2018-09-06T13:57:42.412Z,100.00
2018-09-06T14:00:11.944Z,100.00
2018-09-06T14:02:41.511Z,100.00
2018-09-06T14:05:10.396Z,100.00
2018-09-06T14:07:39.076Z,100.00
2018-09-06T14:10:07.856Z,100.00
2018-09-06T14:12:36.525Z,100.00
2018-09-06T14:15:05.296Z,100.00
2018-09-06T14:17:34.006Z,100.00
2018-09-06T14:20:02.697Z,100.00
2018-09-06T14:22:31.446Z,100.00
2018-09-06T14:25:00.139Z,100.00
2018-09-06T14:27:28.828Z,100.00
2018-09-06T14:29:57.529Z,100.00
2018-09-06T14:32:26.199Z,100.00
2018-09-06T14:34:54.919Z,100.00
2018-09-06T14:37:23.605Z,100.00
2018-09-06T14:39:52.277Z,100.00
2018-09-06T14:42:21.011Z,99.29
2018-09-06T14:44:49.783Z,98.97
2018-09-06T14:47:18.467Z,98.15
2018-09-06T14:49:47.220Z,97.31
2018-09-06T14:52:16.084Z,97.62
2018-09-06T14:54:44.799Z,97.66
2018-09-06T14:57:13.643Z,97.63
2018-09-06T14:59:42.463Z,97.88
2018-09-06T15:02:11.348Z,97.71
2018-09-06T15:04:40.147Z,97.45
2018-09-06T15:07:08.849Z,97.44
2018-09-06T15:09:38.480Z,97.29
2018-09-06T15:12:07.573Z,97.30
2018-09-06T15:14:36.268Z,97.58
2018-09-06T15:17:05.168Z,97.30
2018-09-06T15:19:33.982Z,97.80
2018-09-06T15:22:02.743Z,97.89
2018-09-06T15:24:31.475Z,98.03
2018-09-06T15:27:00.275Z,98.04
2018-09-06T15:29:28.995Z,98.20
2018-09-06T15:31:58.035Z,98.29
2018-09-06T15:34:26.769Z,98.56
2018-09-06T15:36:55.554Z,98.45
2018-09-06T15:39:24.387Z,98.65
2018-09-06T15:41:53.146Z,98.86
2018-09-06T15:44:22.601Z,98.81
2018-09-06T15:46:51.408Z,99.15
2018-09-06T15:49:22.148Z,99.08
2018-09-06T15:51:50.910Z,99.07
2018-09-06T15:54:19.593Z,98.84
2018-09-06T15:56:48.277Z,98.67
2018-09-06T15:59:17.017Z,99.26
2018-09-06T16:01:45.841Z,99.78
2018-09-06T16:04:14.730Z,100.00
2018-09-06T16:06:43.480Z,100.00
2018-09-06T16:09:12.181Z,100.00
2018-09-06T16:11:40.865Z,100.00
2018-09-06T16:14:09.735Z,100.00
2018-09-06T16:16:38.589Z,100.00
2018-09-06T16:19:07.279Z,100.00
2018-09-06T16:21:35.977Z,100.00
2018-09-06T16:24:04.849Z,100.00
2018-09-06T16:26:33.608Z,100.00
2018-09-06T16:29:02.313Z,100.00
2018-09-06T16:31:31.261Z,100.00
2018-09-06T16:33:59.951Z,100.00
2018-09-06T16:36:28.659Z,100.00
2018-09-06T16:38:57.390Z,100.00
2018-09-06T16:41:26.128Z,100.00
2018-09-06T16:43:54.847Z,100.00
2018-09-06T16:46:23.639Z,100.00
2018-09-06T16:48:52.656Z,100.00
2018-09-06T16:51:21.431Z,100.00
2018-09-06T16:53:50.160Z,100.00
2018-09-06T16:56:19.630Z,100.00
2018-09-06T16:58:48.393Z,100.00
2018-09-06T17:01:17.310Z,100.00
2018-09-06T17:03:46.237Z,100.00
2018-09-06T17:06:14.957Z,100.00
2018-09-06T17:08:43.828Z,100.00
2018-09-06T17:11:12.708Z,100.00
2018-09-06T17:13:41.557Z,100.00
2018-09-06T17:16:10.364Z,100.00
2018-09-06T17:18:39.217Z,100.00
2018-09-06T17:21:08.071Z,100.00
2018-09-06T17:23:36.961Z,100.00
2018-09-06T17:26:05.770Z,100.00
2018-09-06T17:28:34.525Z,100.00
2018-09-06T17:31:03.320Z,100.00
2018-09-06T17:33:32.292Z,100.00
2018-09-06T17:36:01.116Z,100.00
2018-09-06T17:38:29.972Z,100.00
2018-09-06T17:40:58.775Z,100.00
2018-09-06T17:43:27.465Z,100.00
2018-09-06T17:45:56.252Z,100.00
2018-09-06T17:48:25.045Z,100.00
2018-09-06T17:50:53.969Z,100.00
2018-09-06T17:53:22.876Z,100.00
2018-09-06T17:55:51.722Z,100.00
2018-09-06T17:58:20.555Z,100.00
2018-09-06T18:01:52.208Z,100.00
2018-09-06T18:04:20.923Z,100.00
2018-09-06T18:06:50.005Z,100.00
2018-09-06T18:09:18.986Z,100.00
2018-09-06T18:11:47.902Z,100.00
2018-09-06T18:14:16.749Z,100.00
2018-09-06T18:16:45.695Z,100.00
2018-09-06T18:19:14.631Z,100.00
2018-09-06T18:21:43.425Z,100.00
2018-09-06T18:24:12.537Z,100.00
2018-09-06T18:26:41.407Z,100.00
2018-09-06T18:29:10.153Z,100.00
2018-09-06T18:31:38.893Z,100.00
2018-09-06T18:34:07.765Z,100.00
2018-09-06T18:36:36.632Z,100.00
2018-09-06T18:39:07.026Z,100.00
2018-09-06T18:41:35.899Z,100.00
2018-09-06T18:44:04.882Z,100.00
2018-09-06T18:46:33.536Z,100.00
2018-09-06T18:49:02.268Z,100.00
2018-09-06T18:51:30.981Z,100.00
2018-09-06T18:53:59.742Z,100.00
2018-09-06T18:56:28.508Z,100.00
2018-09-06T18:58:57.219Z,100.00
2018-09-06T19:01:25.887Z,100.00
2018-09-06T19:03:54.539Z,100.00
2018-09-06T19:06:23.299Z,100.00
2018-09-06T19:08:51.976Z,100.00
2018-09-06T19:11:21.129Z,100.00
2018-09-06T19:13:49.873Z,100.00
2018-09-06T19:16:18.653Z,100.00
2018-09-06T19:18:47.313Z,100.00
2018-09-06T19:21:16.009Z,100.00
2018-09-06T19:23:44.679Z,100.00
2018-09-06T19:26:13.413Z,100.00
2018-09-06T19:28:42.062Z,100.00
2018-09-06T19:31:10.805Z,100.00
2018-09-06T19:33:39.504Z,100.00
2018-09-06T19:36:08.326Z,100.00
2018-09-06T19:38:36.977Z,100.00
2018-09-06T19:41:05.751Z,100.00
2018-09-06T19:43:34.429Z,100.00
2018-09-06T19:46:03.125Z,100.00
2018-09-06T19:48:31.807Z,100.00
2018-09-06T19:51:00.521Z,100.00
2018-09-06T19:53:29.265Z,100.00
2018-09-06T19:55:57.961Z,100.00
2018-09-06T19:58:26.612Z,100.00
2018-09-06T20:00:55.287Z,100.00
2018-09-06T20:03:24.049Z,100.00
2018-09-06T20:05:52.735Z,100.00
2018-09-06T20:08:21.563Z,100.00
2018-09-06T20:10:50.253Z,100.00
2018-09-06T20:13:19.020Z,100.00
2018-09-06T20:15:47.840Z,100.00
2018-09-06T20:18:16.542Z,100.00
2018-09-06T20:20:45.240Z,100.00
2018-09-06T20:23:13.888Z,100.00
2018-09-06T20:25:42.669Z,99.41
2018-09-06T20:28:11.420Z,97.94
2018-09-06T20:30:40.024Z,97.46
2018-09-06T20:33:08.720Z,96.33
2018-09-06T20:35:37.384Z,95.52
2018-09-06T20:38:06.079Z,95.28
2018-09-06T20:40:34.759Z,94.57
2018-09-06T20:43:03.653Z,94.03
2018-09-06T20:45:32.365Z,93.61
2018-09-06T20:48:01.069Z,93.32
2018-09-06T20:50:29.769Z,93.13
2018-09-06T20:52:58.469Z,92.61
2018-09-06T20:55:27.159Z,92.51
2018-09-06T20:57:55.831Z,91.63
2018-09-06T21:00:24.495Z,91.02
2018-09-06T21:02:53.486Z,90.62
2018-09-06T21:05:22.344Z,90.28
2018-09-06T21:07:51.084Z,90.21
2018-09-06T21:10:19.818Z,90.08
2018-09-06T21:12:48.511Z,90.00
2018-09-06T21:15:17.200Z,89.97
2018-09-06T21:17:45.906Z,90.04
2018-09-06T21:20:14.599Z,89.78
2018-09-06T21:22:43.292Z,89.69
2018-09-06T21:25:11.984Z,89.60
2018-09-06T21:27:40.696Z,89.67
2018-09-06T21:30:09.441Z,89.51
2018-09-06T21:32:38.071Z,89.25
2018-09-06T21:35:06.925Z,89.36
2018-09-06T21:37:36.105Z,89.13
2018-09-06T21:40:05.083Z,88.73
2018-09-06T21:42:33.759Z,88.70
2018-09-06T21:45:02.468Z,88.35
2018-09-06T21:47:31.148Z,88.23
2018-09-06T21:49:59.802Z,88.00
2018-09-06T21:52:28.475Z,87.97
2018-09-06T21:54:57.169Z,87.83
2018-09-06T21:57:25.883Z,87.61
2018-09-06T21:59:54.592Z,87.27
2018-09-06T22:02:28.518Z,87.31
2018-09-06T22:04:57.238Z,87.23
2018-09-06T22:07:26.723Z,87.03
2018-09-06T22:09:55.621Z,87.17
2018-09-06T22:12:24.476Z,87.27
2018-09-06T22:14:53.280Z,87.19
2018-09-06T22:17:22.160Z,87.06
2018-09-06T22:19:51.513Z,87.38
2018-09-06T22:22:20.377Z,87.37
2018-09-06T22:24:49.924Z,87.45
2018-09-06T22:27:19.380Z,87.44
2018-09-06T22:29:48.516Z,87.48
2018-09-06T22:32:17.367Z,87.48
2018-09-06T22:34:48.187Z,87.70
2018-09-06T22:37:16.889Z,87.85
2018-09-06T22:39:45.531Z,88.02
2018-09-06T22:42:14.252Z,87.96
2018-09-06T22:44:43.023Z,88.08
2018-09-06T22:47:11.759Z,88.40
2018-09-06T22:49:40.524Z,88.31
2018-09-06T22:52:09.415Z,88.41
2018-09-06T22:54:38.071Z,88.36
2018-09-06T22:57:07.515Z,88.62
2018-09-06T22:59:36.202Z,88.57
2018-09-06T23:02:04.872Z,88.79
2018-09-06T23:04:33.615Z,88.85
2018-09-06T23:07:02.395Z,89.28
2018-09-06T23:09:31.195Z,89.03
2018-09-06T23:12:00.579Z,89.13
2018-09-06T23:14:29.451Z,89.32
2018-09-06T23:16:58.616Z,89.31
2018-09-06T23:19:27.432Z,89.40
2018-09-06T23:21:56.219Z,89.31
2018-09-06T23:24:25.511Z,89.39
2018-09-06T23:26:54.187Z,89.09
2018-09-06T23:29:23.755Z,89.92
2018-09-06T23:31:53.118Z,89.11
2018-09-06T23:34:22.410Z,89.52
2018-09-06T23:36:51.187Z,89.41
2018-09-06T23:39:20.011Z,89.92
2018-09-06T23:41:49.613Z,89.76
2018-09-06T23:44:18.427Z,89.57
2018-09-06T23:46:47.900Z,89.47
2018-09-06T23:49:16.830Z,89.52
2018-09-06T23:51:45.521Z,89.46
2018-09-06T23:54:16.109Z,89.77
2018-09-06T23:56:45.401Z,89.23
2018-09-06T23:59:14.145Z,89.59
